Time;durP1;ratioP1;P1;durP2;ratioP2;P2;SDS_P1;SDS_P2;PMS_P1;PMS_P2;Temp;Humidity;BMP_temperature;BMP_pressure;BME280_temperature;BME280_humidity;BME280_pressure;Samples;Min_cycle;Max_cycle;Signal;HPM_P1;HPM_P2
2022/11/02 00:01:29;;;;;;;11.83;2.57;;;;;;;18.12;100.00;101183.47;4991452;28;20280;-51
2022/11/02 00:03:55;;;;;;;10.73;2.43;;;;;;;18.12;100.00;101167.25;4994078;28;20367;-51
2022/11/02 00:06:20;;;;;;;12.17;3.10;;;;;;;18.29;100.00;101175.44;4984832;28;20281;-52
2022/11/02 00:08:46;;;;;;;18.27;3.57;;;;;;;18.28;100.00;101175.69;5008722;28;20042;-53
2022/11/02 00:11:12;;;;;;;19.30;3.67;;;;;;;18.49;100.00;101175.06;5000198;28;20041;-52
2022/11/02 00:13:37;;;;;;;12.10;3.00;;;;;;;18.15;100.00;101161.34;4999959;28;20061;-54
2022/11/02 00:16:06;;;;;;;7.47;1.65;;;;;;;18.29;100.00;101204.41;4996324;28;20289;-54
2022/11/02 00:18:33;;;;;;;12.40;2.13;;;;;;;18.24;100.00;101174.53;5000705;28;20046;-54
2022/11/02 00:21:00;;;;;;;15.60;2.10;;;;;;;18.15;100.00;101171.38;5001341;28;20264;-55
2022/11/02 00:23:26;;;;;;;11.93;2.10;;;;;;;18.36;100.00;101172.59;5000533;28;20272;-54
2022/11/02 00:25:53;;;;;;;12.00;2.20;;;;;;;18.47;100.00;101176.34;5006663;28;20259;-53
2022/11/02 00:28:19;;;;;;;10.60;2.07;;;;;;;18.38;100.00;101180.50;4999146;28;20039;-53
2022/11/02 00:30:45;;;;;;;13.30;2.30;;;;;;;18.11;100.00;101173.72;5002014;28;20300;-55
2022/11/02 00:33:11;;;;;;;12.13;1.30;;;;;;;18.23;100.00;101167.47;5000421;28;20050;-52
2022/11/02 00:35:36;;;;;;;12.20;2.67;;;;;;;18.26;100.00;101177.81;5005763;28;20054;-53
2022/11/02 00:38:03;;;;;;;6.68;1.55;;;;;;;18.24;100.00;101171.81;5004334;28;20039;-52
2022/11/02 00:40:29;;;;;;;11.20;2.53;;;;;;;18.44;100.00;101172.22;5010545;28;20032;-54
2022/11/02 00:42:54;;;;;;;13.95;2.00;;;;;;;18.46;100.00;101172.81;5006332;28;20140;-54
2022/11/02 00:45:22;;;;;;;14.65;2.15;;;;;;;18.26;100.00;101178.63;5007056;28;20034;-52
2022/11/02 00:47:48;;;;;;;12.20;2.70;;;;;;;18.11;100.00;101171.00;5007873;28;20038;-52
2022/11/02 00:50:15;;;;;;;12.90;2.63;;;;;;;18.18;100.00;101179.81;5006939;28;20340;-51
2022/11/02 00:52:41;;;;;;;14.00;1.83;;;;;;;18.43;100.00;101167.06;5004143;28;20313;-53
2022/11/02 00:55:09;;;;;;;12.90;1.90;;;;;;;18.13;100.00;101174.31;5011915;28;20034;-54
2022/11/02 00:57:39;;;;;;;7.60;1.43;;;;;;;17.84;100.00;101159.84;5027992;28;20277;-53
2022/11/02 01:00:08;;;;;;;9.87;1.83;;;;;;;18.05;100.00;101171.97;4995219;28;20269;-54
2022/11/02 01:02:35;;;;;;;11.60;2.43;;;;;;;18.43;100.00;101184.13;5011855;28;20277;-54
2022/11/02 01:05:01;;;;;;;8.57;1.70;;;;;;;18.14;100.00;101186.78;5004807;28;20318;-54
2022/11/02 01:07:28;;;;;;;10.17;1.77;;;;;;;17.94;100.00;101179.00;5007782;28;20090;-52
2022/11/02 01:09:54;;;;;;;5.53;2.17;;;;;;;17.88;100.00;101188.09;5009219;28;20272;-55
2022/11/02 01:12:20;;;;;;;10.45;2.10;;;;;;;17.98;100.00;101184.75;5002198;28;20030;-54
2022/11/02 01:14:47;;;;;;;12.27;2.03;;;;;;;18.14;100.00;101192.19;5008909;28;20046;-54
2022/11/02 01:17:13;;;;;;;10.83;1.53;;;;;;;17.95;100.00;101255.59;5006689;28;20022;-54
2022/11/02 01:19:40;;;;;;;18.60;2.83;;;;;;;17.56;100.00;101251.44;4999326;28;20265;-53
2022/11/02 01:22:06;;;;;;;15.32;1.98;;;;;;;16.68;100.00;101261.75;5007684;28;20344;-54
2022/11/02 01:24:33;;;;;;;7.33;1.80;;;;;;;16.33;100.00;101249.66;5010605;28;20072;-53
2022/11/02 01:27:01;;;;;;;4.00;0.90;;;;;;;15.95;100.00;101254.19;4996003;28;20284;-51
2022/11/02 01:29:27;;;;;;;6.10;1.00;;;;;;;16.24;100.00;101256.41;5009074;28;20365;-53
2022/11/02 01:31:53;;;;;;;9.32;1.63;;;;;;;16.06;100.00;101268.81;5003573;28;20041;-53
2022/11/02 01:34:20;;;;;;;10.30;1.27;;;;;;;15.77;100.00;101257.63;4993533;28;20031;-53
2022/11/02 01:36:45;;;;;;;;;;;;;;;15.58;100.00;101265.66;5010755;28;20030;-55
2022/11/02 01:39:12;;;;;;;14.17;2.73;;;;;;;15.51;100.00;101261.34;5005338;28;19985;-54
2022/11/02 01:41:37;;;;;;;13.87;1.50;;;;;;;15.61;100.00;101259.00;5001579;28;20034;-51
2022/11/02 01:44:04;;;;;;;12.53;2.07;;;;;;;15.73;100.00;101234.88;5002022;28;20313;-55
2022/11/02 01:46:43;;;;;;;6.60;1.20;;;;;;;15.67;100.00;101246.50;5005032;28;20280;-50
2022/11/02 01:49:16;;;;;;;11.53;2.17;;;;;;;15.52;100.00;101246.81;5009015;28;20086;-54
2022/11/02 01:51:47;;;;;;;15.80;2.10;;;;;;;16.19;100.00;101255.22;5009509;28;20289;-55
2022/11/02 01:54:22;;;;;;;16.10;1.70;;;;;;;16.33;100.00;101238.88;5003479;28;20288;-54
2022/11/02 01:56:52;;;;;;;6.67;1.40;;;;;;;15.77;100.00;101230.66;4990468;28;20379;-51
2022/11/02 01:59:25;;;;;;;17.53;1.30;;;;;;;15.99;100.00;101233.81;5011151;28;20271;-53
2022/11/02 02:01:51;;;;;;;11.63;2.03;;;;;;;15.59;100.00;101228.75;4998393;28;20325;-53
2022/11/02 02:04:18;;;;;;;9.55;1.50;;;;;;;15.73;100.00;101229.47;5006495;28;20266;-52
2022/11/02 02:06:43;;;;;;;7.55;1.60;;;;;;;15.48;100.00;101217.63;5002550;28;20034;-55
2022/11/02 02:09:09;;;;;;;11.68;1.83;;;;;;;15.55;100.00;101220.28;5006406;28;20043;-50
2022/11/02 02:11:38;;;;;;;7.57;1.60;;;;;;;15.73;100.00;101203.31;5000220;28;20037;-53
2022/11/02 02:14:12;;;;;;;9.70;1.70;;;;;;;15.69;100.00;101207.50;5003529;28;20063;-51
2022/11/02 02:16:50;;;;;;;8.57;2.00;;;;;;;15.69;100.00;101204.81;5004543;28;20279;-54
2022/11/02 02:19:41;;;;;;;9.27;2.37;;;;;;;15.57;100.00;101203.84;5005667;28;20272;-52
2022/11/02 02:22:13;;;;;;;14.20;2.70;;;;;;;15.39;100.00;101196.53;5012050;28;20277;-51
2022/11/02 02:24:42;;;;;;;8.40;2.27;;;;;;;15.50;100.00;101201.25;5011469;28;20327;-48
2022/11/02 02:27:34;;;;;;;8.00;2.50;;;;;;;15.70;100.00;101205.66;4979240;28;20285;-50
2022/11/02 02:30:05;;;;;;;19.60;2.47;;;;;;;15.45;100.00;101211.84;5017842;28;20322;-52
2022/11/02 02:32:49;;;;;;;12.77;1.90;;;;;;;15.26;100.00;101214.47;5009707;28;20284;-56
2022/11/02 02:35:28;;;;;;;14.13;2.93;;;;;;;15.04;100.00;101222.06;5001526;28;20308;-50
2022/11/02 02:37:59;;;;;;;21.03;4.30;;;;;;;15.22;100.00;101217.81;4997630;28;20268;-54
2022/11/02 02:40:32;;;;;;;14.90;2.10;;;;;;;15.46;100.00;101217.00;5009534;28;20283;-53
2022/11/02 02:43:12;;;;;;;17.53;3.00;;;;;;;15.46;100.00;101202.72;4996231;28;20279;-50
2022/11/02 02:45:41;;;;;;;11.40;2.27;;;;;;;15.75;100.00;101221.97;5016658;28;20284;-57
2022/11/02 02:48:11;;;;;;;14.57;2.70;;;;;;;15.59;100.00;101213.38;5003807;28;20304;-55
2022/11/02 02:50:49;;;;;;;13.77;2.90;;;;;;;15.72;100.00;101222.44;4985932;28;20277;-52
2022/11/02 02:53:21;;;;;;;9.27;2.13;;;;;;;15.69;100.00;101239.06;4995753;28;20278;-52
2022/11/02 02:55:49;;;;;;;25.97;2.67;;;;;;;15.92;100.00;101238.44;4984719;28;20268;-53
2022/11/02 02:58:21;;;;;;;16.93;3.80;;;;;;;15.69;100.00;101233.66;4991168;28;20305;-49
2022/11/02 03:00:47;;;;;;;14.90;2.30;;;;;;;15.85;100.00;101234.97;4991872;28;20281;-51
2022/11/02 03:03:19;;;;;;;14.65;2.63;;;;;;;15.91;100.00;101234.94;4979564;28;20275;-50
2022/11/02 03:06:02;;;;;;;14.23;2.23;;;;;;;15.97;100.00;101225.13;4994223;28;20106;-53
2022/11/02 03:08:30;;;;;;;16.03;3.13;;;;;;;15.93;100.00;101217.72;4983706;28;20296;-51
2022/11/02 03:11:06;;;;;;;13.50;2.50;;;;;;;16.04;100.00;101230.47;4989566;28;20351;-53
2022/11/02 03:14:05;;;;;;;11.43;2.03;;;;;;;15.95;100.00;101221.00;4986229;28;20284;-51
2022/11/02 03:16:41;;;;;;;;;;;;;;;16.10;100.00;101240.34;4979143;28;20107;-51
2022/11/02 03:19:19;;;;;;;18.25;2.25;;;;;;;15.74;100.00;101231.13;4982487;28;19910;-51
2022/11/02 03:21:50;;;;;;;13.43;2.33;;;;;;;15.87;100.00;101220.19;4982234;28;20061;-52
2022/11/02 03:24:20;;;;;;;23.83;3.13;;;;;;;15.93;100.00;101225.81;4986238;28;20276;-48
2022/11/02 03:27:12;;;;;;;15.07;2.47;;;;;;;15.75;100.00;101217.41;4981795;28;20281;-53
2022/11/02 03:29:45;;;;;;;17.40;2.40;;;;;;;15.38;100.00;101232.63;4978762;28;20333;-49
2022/11/02 03:32:21;;;;;;;23.37;2.50;;;;;;;16.23;100.00;101233.19;4984177;28;20279;-50
2022/11/02 03:34:53;;;;;;;12.00;2.30;;;;;;;16.05;100.00;101224.84;4983619;28;20272;-50
2022/11/02 03:37:24;;;;;;;13.43;1.97;;;;;;;16.22;100.00;101218.03;4985300;28;20026;-52
2022/11/02 03:39:54;;;;;;;19.73;2.67;;;;;;;15.74;100.00;101229.22;4979496;28;20365;-55
2022/11/02 03:42:24;;;;;;;12.67;2.40;;;;;;;15.93;100.00;101239.28;4987948;28;20312;-52
2022/11/02 03:45:05;;;;;;;15.67;2.27;;;;;;;15.78;100.00;101232.31;4983547;28;20273;-48
2022/11/02 03:47:34;;;;;;;11.13;2.07;;;;;;;15.91;100.00;101253.81;4990433;28;20290;-51
2022/11/02 03:50:08;;;;;;;10.30;1.80;;;;;;;15.94;100.00;101246.34;4984355;28;20429;-53
2022/11/02 03:52:38;;;;;;;11.57;1.90;;;;;;;15.89;100.00;101242.41;4980192;28;20304;-52
2022/11/02 03:55:10;;;;;;;17.70;2.90;;;;;;;15.65;100.00;101248.59;4963708;28;20278;-49
2022/11/02 03:57:49;;;;;;;14.30;2.90;;;;;;;16.05;100.00;101249.13;4965357;28;20361;-51
2022/11/02 04:00:24;;;;;;;25.43;4.00;;;;;;;15.84;100.00;101257.59;4965861;28;20270;-53
2022/11/02 04:02:58;;;;;;;15.40;3.10;;;;;;;15.96;100.00;101269.31;4963860;28;20270;-52
2022/11/02 04:05:34;;;;;;;10.87;1.70;;;;;;;15.97;100.00;101262.88;4965033;28;20273;-51
2022/11/02 04:08:20;;;;;;;39.47;3.77;;;;;;;15.99;100.00;101257.28;4992237;28;20285;-53
2022/11/02 04:16:21;;;;;;;17.23;2.20;;;;;;;16.07;100.00;101272.38;4962038;28;20265;-53
2022/11/02 04:21:31;;;;;;;17.47;3.13;;;;;;;15.90;100.00;101283.69;4962845;29;20077;-52
2022/11/02 04:26:43;;;;;;;13.63;2.73;;;;;;;15.72;100.00;101314.09;4967283;28;20270;-53
2022/11/02 04:29:10;;;;;;;20.35;2.53;;;;;;;16.32;100.00;101299.28;4963074;28;20301;-52
2022/11/02 04:31:36;;;;;;;17.23;2.63;;;;;;;16.59;100.00;101293.63;4963256;28;20032;-50
2022/11/02 04:34:02;;;;;;;17.30;2.20;;;;;;;16.53;100.00;101294.53;4959585;28;20357;-53
2022/11/02 04:36:31;;;;;;;18.73;3.30;;;;;;;16.40;100.00;101304.44;4985410;28;20040;-54
2022/11/02 04:38:57;;;;;;;15.60;2.67;;;;;;;16.20;100.00;101294.66;4970298;28;20099;-48
2022/11/02 04:41:43;;;;;;;17.43;2.33;;;;;;;16.31;100.00;101311.13;4967013;28;20258;-48
2022/11/02 04:44:23;;;;;;;19.20;3.20;;;;;;;16.04;100.00;101327.56;4962093;28;20293;-53
2022/11/02 04:46:54;;;;;;;18.20;3.27;;;;;;;16.19;100.00;101346.13;4960760;28;21761;-53
2022/11/02 04:49:23;;;;;;;16.60;2.10;;;;;;;16.26;100.00;101356.88;4961957;28;20297;-51
2022/11/02 04:51:51;;;;;;;8.93;1.80;;;;;;;16.30;100.00;101347.28;4961814;28;20293;-54
2022/11/02 04:54:18;;;;;;;14.97;3.83;;;;;;;16.42;100.00;101361.72;4980769;28;20309;-54
2022/11/02 04:56:45;;;;;;;21.00;3.37;;;;;;;16.54;100.00;101347.47;4980041;28;20270;-49
2022/11/02 04:59:12;;;;;;;10.20;2.28;;;;;;;16.77;100.00;101363.03;4986308;28;20325;-52
2022/11/02 05:01:38;;;;;;;16.35;2.65;;;;;;;16.47;100.00;101391.56;4983121;28;20046;-52
2022/11/02 05:04:04;;;;;;;21.83;2.50;;;;;;;16.89;100.00;101374.72;4989799;28;20023;-49
2022/11/02 05:06:32;;;;;;;13.20;2.93;;;;;;;16.77;100.00;101368.44;4983937;28;20483;-48
2022/11/02 05:08:58;;;;;;;12.07;2.85;;;;;;;16.84;100.00;101384.53;4984563;28;20273;-52
2022/11/02 05:11:24;;;;;;;9.88;2.22;;;;;;;16.65;100.00;101379.16;4985396;28;20047;-50
2022/11/02 05:13:51;;;;;;;12.80;2.13;;;;;;;16.84;100.00;101387.25;4985109;28;20062;-52
2022/11/02 05:16:17;;;;;;;;;;;;;;;16.80;100.00;101389.59;4980538;28;20262;-48
2022/11/02 05:18:44;;;;;;;15.57;2.97;;;;;;;16.98;100.00;101375.28;4981025;28;19910;-53
2022/11/02 05:21:11;;;;;;;25.35;2.60;;;;;;;16.69;100.00;101388.44;4980791;28;20043;-51
2022/11/02 05:23:37;;;;;;;14.27;3.00;;;;;;;16.64;100.00;101388.31;4980242;28;20049;-51
2022/11/02 05:26:07;;;;;;;10.70;2.30;;;;;;;16.74;100.00;101394.00;4980593;28;20290;-53
2022/11/02 05:28:34;;;;;;;13.13;2.87;;;;;;;16.84;100.00;101395.34;4982903;28;20285;-52
2022/11/02 05:31:02;;;;;;;17.80;2.50;;;;;;;16.70;100.00;101400.06;4981332;28;20281;-51
2022/11/02 05:33:31;;;;;;;27.83;2.97;;;;;;;16.63;100.00;101406.38;4982009;28;20266;-55
2022/11/02 05:36:00;;;;;;;20.00;2.83;;;;;;;16.58;100.00;101418.88;4984688;28;20297;-54
2022/11/02 05:38:28;;;;;;;18.67;2.77;;;;;;;16.97;100.00;101408.72;4987795;28;20333;-52
2022/11/02 05:40:55;;;;;;;;;;;;;;;16.51;100.00;101428.91;4987607;28;20277;-55
2022/11/02 05:43:22;;;;;;;27.50;4.40;;;;;;;16.45;100.00;101436.84;4979083;28;19976;-55
2022/11/02 05:45:59;;;;;;;13.07;2.17;;;;;;;16.19;100.00;101435.16;4978655;28;20276;-50
2022/11/02 05:48:25;;;;;;;17.20;2.80;;;;;;;16.34;100.00;101427.59;4981235;28;20045;-49
2022/11/02 05:50:59;;;;;;;20.40;3.07;;;;;;;15.86;100.00;101445.09;4983956;28;20043;-50
2022/11/02 05:53:25;;;;;;;11.03;2.80;;;;;;;16.65;100.00;101443.97;4993217;28;20296;-50
2022/11/02 05:55:51;;;;;;;10.40;2.97;;;;;;;16.48;100.00;101458.00;5004811;28;20300;-52
2022/11/02 05:58:17;;;;;;;15.00;2.10;;;;;;;16.62;100.00;101452.50;5003344;28;20073;-54
2022/11/02 06:00:43;;;;;;;19.57;2.10;;;;;;;16.53;100.00;101448.41;5008459;28;20276;-48
2022/11/02 06:03:09;;;;;;;10.20;2.35;;;;;;;16.72;100.00;101466.31;5005350;28;20030;-54
2022/11/02 06:05:34;;;;;;;23.87;3.07;;;;;;;16.73;100.00;101464.47;5002441;28;20052;-56
2022/11/02 06:08:01;;;;;;;15.33;2.83;;;;;;;16.49;100.00;101491.22;5011056;28;20288;-53
2022/11/02 06:10:28;;;;;;;21.85;3.20;;;;;;;16.44;100.00;101473.00;5018160;28;20105;-52
2022/11/02 06:12:58;;;;;;;16.47;1.93;;;;;;;16.86;100.00;101485.94;4999992;28;20060;-49
2022/11/02 06:15:24;;;;;;;13.20;2.20;;;;;;;16.71;100.00;101477.31;4998490;28;20336;-48
2022/11/02 06:17:50;;;;;;;21.52;3.10;;;;;;;16.94;100.00;101492.94;5000440;28;20313;-51
2022/11/02 06:20:17;;;;;;;15.47;1.70;;;;;;;16.89;100.00;101490.88;5000382;28;20047;-52
2022/11/02 06:22:43;;;;;;;12.98;2.30;;;;;;;16.60;100.00;101503.19;5003092;28;20283;-54
2022/11/02 06:25:09;;;;;;;18.37;2.40;;;;;;;16.35;100.00;101520.16;5001862;28;20039;-52
2022/11/02 06:27:35;;;;;;;10.52;2.05;;;;;;;16.56;100.00;101523.56;5003411;28;20045;-52
2022/11/02 06:30:03;;;;;;;16.60;2.10;;;;;;;16.46;100.00;101533.00;5033151;28;20026;-53
2022/11/02 06:32:28;;;;;;;14.07;2.70;;;;;;;16.63;100.00;101529.75;4999507;28;20280;-54
2022/11/02 06:34:54;;;;;;;24.25;2.35;;;;;;;16.67;100.00;101522.88;4998127;28;20098;-52
2022/11/02 06:37:19;;;;;;;15.83;2.70;;;;;;;16.44;100.00;101550.44;4997468;28;20033;-53
2022/11/02 06:39:45;;;;;;;18.60;2.58;;;;;;;16.58;100.00;101551.16;4998882;28;20038;-51
2022/11/02 06:42:11;;;;;;;16.33;2.60;;;;;;;16.35;100.00;101549.84;4999832;28;20098;-50
2022/11/02 06:44:36;;;;;;;17.70;2.73;;;;;;;16.00;100.00;101559.16;5002080;28;20069;-53
2022/11/02 06:47:02;;;;;;;23.63;2.73;;;;;;;15.96;100.00;101543.66;4999091;28;20037;-53
2022/11/02 06:49:28;;;;;;;21.17;3.37;;;;;;;16.18;100.00;101566.56;5000189;28;20038;-51
2022/11/02 06:51:53;;;;;;;15.32;2.47;;;;;;;16.36;100.00;101567.72;5002226;28;20101;-54
2022/11/02 06:54:19;;;;;;;13.17;2.23;;;;;;;15.85;100.00;101583.69;4999484;28;20106;-49
2022/11/02 06:56:44;;;;;;;10.30;1.83;;;;;;;16.19;100.00;101589.81;4996882;28;20273;-51
2022/11/02 06:59:10;;;;;;;11.75;2.17;;;;;;;16.23;100.00;101595.59;4998242;28;20039;-53
2022/11/02 07:01:35;;;;;;;12.93;2.20;;;;;;;15.89;100.00;101606.53;4997802;28;20102;-53
2022/11/02 07:04:02;;;;;;;14.68;2.50;;;;;;;16.22;100.00;101612.03;4996101;28;20057;-52
2022/11/02 07:06:27;;;;;;;18.15;2.67;;;;;;;16.67;100.00;101622.78;5000305;28;20105;-50
2022/11/02 07:08:53;;;;;;;22.03;2.60;;;;;;;16.68;100.00;101629.84;4998893;28;20030;-52
2022/11/02 07:11:19;;;;;;;14.10;1.48;;;;;;;16.40;100.00;101628.34;4992716;28;20325;-54
2022/11/02 07:13:45;;;;;;;22.50;3.42;;;;;;;16.59;100.00;101626.56;4997859;28;20084;-55
2022/11/02 07:16:11;;;;;;;12.27;2.20;;;;;;;16.53;100.00;101637.41;4999924;28;20034;-51
2022/11/02 07:18:36;;;;;;;16.65;2.88;;;;;;;16.19;100.00;101645.66;4995653;28;20041;-51
2022/11/02 07:21:02;;;;;;;18.77;2.50;;;;;;;16.24;100.00;101635.03;4997716;28;20038;-51
2022/11/02 07:23:28;;;;;;;17.70;2.22;;;;;;;16.34;100.00;101656.19;5000137;28;20030;-52
2022/11/02 07:25:53;;;;;;;9.07;2.35;;;;;;;16.33;100.00;101651.81;4999829;28;20060;-53
2022/11/02 07:28:19;;;;;;;12.90;2.10;;;;;;;16.06;100.00;101657.31;4998999;28;20042;-49
2022/11/02 07:30:44;;;;;;;7.50;2.13;;;;;;;16.49;100.00;101667.53;4997978;28;20094;-52
2022/11/02 07:33:10;;;;;;;12.17;2.43;;;;;;;16.34;100.00;101666.97;4982579;28;20034;-53
2022/11/02 07:35:36;;;;;;;20.73;2.97;;;;;;;16.29;100.00;101669.50;4998745;28;20030;-53
2022/11/02 07:38:06;;;;;;;14.70;2.10;;;;;;;16.25;100.00;101670.97;4997980;28;20055;-54
2022/11/02 07:40:34;;;;;;;16.50;2.37;;;;;;;16.25;100.00;101674.47;4995515;28;20280;-50
2022/11/02 07:43:00;;;;;;;13.10;2.20;;;;;;;16.41;100.00;101667.78;4999948;28;20264;-52
2022/11/02 07:45:48;;;;;;;12.43;1.77;;;;;;;16.00;100.00;101679.75;5016192;28;20263;-49
2022/11/02 07:48:14;;;;;;;13.23;3.47;;;;;;;16.36;100.00;101691.06;5001209;28;20280;-50
2022/11/02 07:50:39;;;;;;;11.57;1.92;;;;;;;16.32;100.00;101683.41;4996052;28;20031;-52
2022/11/02 07:53:05;;;;;;;14.00;2.17;;;;;;;16.60;100.00;101681.38;4997434;28;20053;-50
2022/11/02 07:55:31;;;;;;;10.13;2.10;;;;;;;16.19;100.00;101697.75;4999627;28;20296;-50
2022/11/02 07:58:02;;;;;;;15.00;2.28;;;;;;;16.36;100.00;101694.56;5009413;28;20057;-49
2022/11/02 08:00:33;;;;;;;18.67;2.57;;;;;;;16.47;100.00;101693.91;4992761;28;20058;-53
2022/11/02 08:03:00;;;;;;;10.80;2.53;;;;;;;16.75;100.00;101711.66;4992854;28;20279;-53
2022/11/02 08:05:28;;;;;;;17.80;2.67;;;;;;;17.20;100.00;101718.06;4995493;28;20287;-53
2022/11/02 08:08:00;;;;;;;15.60;2.90;;;;;;;16.70;100.00;101746.59;4998775;28;20360;-51
2022/11/02 08:10:27;;;;;;;18.03;2.03;;;;;;;17.11;100.00;101724.81;4995687;28;20268;-51
2022/11/02 08:12:53;;;;;;;23.30;2.77;;;;;;;17.22;100.00;101737.59;4995680;28;20276;-53
2022/11/02 08:15:19;;;;;;;14.25;2.65;;;;;;;17.59;100.00;101737.75;5002709;28;20294;-53
2022/11/02 08:17:44;;;;;;;16.20;2.20;;;;;;;17.89;100.00;101725.44;4999096;28;20031;-50
2022/11/02 08:20:10;;;;;;;18.10;2.40;;;;;;;17.50;100.00;101722.84;5006697;28;20414;-52
2022/11/02 08:22:39;;;;;;;12.02;1.90;;;;;;;17.97;100.00;101716.19;4994895;28;20095;-54
2022/11/02 08:25:06;;;;;;;15.43;2.00;;;;;;;17.39;100.00;101734.38;4993422;28;20042;-53
2022/11/02 08:27:31;;;;;;;;;;;;;;;18.80;100.00;101732.97;4993273;28;20292;-51
2022/11/02 08:29:57;;;;;;;16.67;2.43;;;;;;;19.66;100.00;101736.53;4990384;28;19914;-50
2022/11/02 08:32:22;;;;;;;10.82;2.45;;;;;;;19.60;100.00;101749.94;4995758;28;20057;-51
2022/11/02 08:34:48;;;;;;;9.10;2.90;;;;;;;19.62;100.00;101757.84;4983607;28;20043;-54
2022/11/02 08:37:14;;;;;;;13.82;2.00;;;;;;;19.61;100.00;101757.06;4973290;28;20158;-51
2022/11/02 08:39:39;;;;;;;15.43;1.67;;;;;;;19.77;100.00;101760.09;4985080;28;20038;-50
2022/11/02 08:42:04;;;;;;;14.83;2.13;;;;;;;20.41;100.00;101758.56;4995370;28;20065;-49
2022/11/02 08:44:30;;;;;;;12.00;2.73;;;;;;;20.24;100.00;101769.34;4989712;28;20954;-49
2022/11/02 08:46:56;;;;;;;14.43;2.77;;;;;;;20.35;100.00;101768.50;4992406;28;20066;-52
2022/11/02 08:49:21;;;;;;;15.75;2.25;;;;;;;20.61;100.00;101771.75;5016528;28;20046;-55
2022/11/02 08:51:47;;;;;;;13.15;1.88;;;;;;;21.10;100.00;101773.25;4989436;28;20114;-54
2022/11/02 08:54:13;;;;;;;16.60;2.80;;;;;;;20.18;100.00;101776.53;4993448;28;20065;-52
2022/11/02 08:56:39;;;;;;;9.60;1.98;;;;;;;20.47;100.00;101763.88;4993138;28;20031;-54
2022/11/02 08:59:05;;;;;;;20.80;4.45;;;;;;;21.02;100.00;101775.31;4994395;28;20043;-50
2022/11/02 09:01:30;;;;;;;21.25;2.38;;;;;;;20.65;100.00;101785.69;4989027;28;20049;-55
2022/11/02 09:03:56;;;;;;;13.38;2.10;;;;;;;20.41;100.00;101796.59;4992538;28;20039;-50
2022/11/02 09:06:22;;;;;;;15.27;3.33;;;;;;;21.28;100.00;101783.09;4970268;28;20084;-49
2022/11/02 09:08:47;;;;;;;19.25;2.70;;;;;;;21.26;100.00;101786.09;4994774;28;20043;-53
2022/11/02 09:11:13;;;;;;;13.60;3.13;;;;;;;20.58;100.00;101796.69;4988888;28;20041;-55
2022/11/02 09:13:38;;;;;;;7.82;1.98;;;;;;;21.89;99.15;101794.22;4992091;28;20073;-52
2022/11/02 09:16:04;;;;;;;9.45;2.45;;;;;;;21.62;96.12;101794.03;4989723;28;20042;-53
2022/11/02 09:18:31;;;;;;;17.70;2.50;;;;;;;22.25;93.69;101795.81;4994156;28;20095;-53
2022/11/02 09:21:00;;;;;;;15.18;2.28;;;;;;;21.54;94.12;101811.59;5000679;28;20041;-53
2022/11/02 09:23:26;;;;;;;15.00;2.27;;;;;;;22.03;91.69;101807.50;4986613;28;20045;-53
2022/11/02 09:25:51;;;;;;;14.85;1.90;;;;;;;21.74;92.33;101810.31;5000238;28;20034;-54
2022/11/02 09:28:16;;;;;;;10.93;2.60;;;;;;;21.79;91.40;101804.94;5003516;28;20042;-52
2022/11/02 09:30:42;;;;;;;11.48;2.45;;;;;;;21.61;93.80;101808.72;4996907;28;20055;-53
2022/11/02 09:33:08;;;;;;;9.43;2.40;;;;;;;22.70;87.46;101823.94;4985128;28;20039;-54
2022/11/02 09:35:35;;;;;;;;;;;;;;;21.77;89.25;101824.25;4995328;28;20277;-55
2022/11/02 09:38:01;;;;;;;6.93;2.38;;;;;;;22.28;88.55;101826.13;4991578;28;19914;-51
2022/11/02 09:40:34;;;;;;;;;;;;;;;22.43;86.46;101830.94;4993411;28;20110;-55
2022/11/02 09:43:17;;;;;;;9.90;2.13;;;;;;;23.26;83.15;101842.88;4985040;28;19919;-57
2022/11/02 09:46:06;;;;;;;11.67;1.97;;;;;;;23.39;83.24;101840.84;4984147;28;20031;-54
2022/11/02 09:48:35;;;;;;;12.77;2.87;;;;;;;23.25;82.10;101852.16;4988698;28;20090;-56
2022/11/02 09:51:09;;;;;;;9.00;1.87;;;;;;;22.19;83.39;101852.13;4991942;28;20039;-57
2022/11/02 09:53:49;;;;;;;16.33;3.13;;;;;;;23.30;79.35;101851.41;4990404;28;20046;-55
2022/11/02 09:56:18;;;;;;;10.20;2.37;;;;;;;23.53;78.30;101847.53;4988968;28;20073;-55
2022/11/02 09:58:53;;;;;;;9.80;2.10;;;;;;;23.28;78.13;101851.63;5003461;28;20030;-55
2022/11/02 10:01:27;;;;;;;15.10;2.40;;;;;;;23.17;77.42;101855.31;5001171;28;20029;-55
2022/11/02 10:04:29;;;;;;;12.77;2.17;;;;;;;22.54;81.80;101847.47;4993032;28;20035;-56
2022/11/02 10:07:01;;;;;;;17.90;3.23;;;;;;;22.42;81.11;101866.63;4998270;28;20073;-58
2022/11/02 10:09:48;;;;;;;17.07;2.87;;;;;;;22.91;80.28;101861.28;5013752;28;20048;-57
2022/11/02 10:12:22;;;;;;;10.13;2.10;;;;;;;23.97;74.30;101867.53;5000907;28;20062;-54
2022/11/02 10:14:55;;;;;;;12.50;2.43;;;;;;;24.53;70.13;101869.03;4993036;28;20034;-54
2022/11/02 10:17:25;;;;;;;12.83;2.23;;;;;;;22.32;75.07;101870.00;5003485;28;20038;-55
2022/11/02 10:19:55;;;;;;;13.37;2.47;;;;;;;24.27;71.62;101869.69;4997689;28;20050;-56
2022/11/02 10:22:25;;;;;;;10.83;1.90;;;;;;;25.65;65.47;101877.91;4998989;28;20090;-54
2022/11/02 10:24:53;;;;;;;13.63;2.57;;;;;;;26.32;61.96;101879.84;4997530;28;20073;-53
2022/11/02 10:27:28;;;;;;;17.70;2.37;;;;;;;24.57;64.56;101889.28;5006318;28;20041;-56
2022/11/02 10:29:58;;;;;;;8.80;2.10;;;;;;;25.79;63.33;101880.94;5003611;28;20097;-52
2022/11/02 10:32:23;;;;;;;12.77;1.90;;;;;;;25.09;63.75;101876.69;5007398;28;20035;-53
2022/11/02 10:34:50;;;;;;;9.23;2.10;;;;;;;25.69;60.60;101902.84;4997300;28;20026;-56
2022/11/02 10:37:40;;;;;;;15.03;2.20;;;;;;;25.98;61.08;101877.66;5017746;28;20049;-51
2022/11/02 10:40:31;;;;;;;12.13;2.40;;;;;;;24.90;63.77;101881.81;4996855;28;20090;-53
2022/11/02 10:43:22;;;;;;;13.73;2.30;;;;;;;24.08;66.84;101872.03;4987808;28;20046;-55
2022/11/02 10:46:06;;;;;;;9.40;2.53;;;;;;;25.99;63.14;101893.00;4993393;28;20042;-54
2022/11/02 10:48:47;;;;;;;13.70;2.40;;;;;;;27.31;60.24;101904.97;4995759;28;20072;-54
2022/11/02 10:51:15;;;;;;;10.50;2.10;;;;;;;26.75;59.59;101910.41;4993288;28;20034;-56
2022/11/02 10:53:42;;;;;;;10.93;2.13;;;;;;;26.71;60.05;101909.31;4992051;28;20038;-55
2022/11/02 10:56:23;;;;;;;13.43;2.40;;;;;;;26.94;60.08;101906.28;4994098;28;20042;-56
2022/11/02 10:58:57;;;;;;;9.53;2.43;;;;;;;27.02;57.81;101917.50;4997027;28;20054;-54
2022/11/02 11:01:23;;;;;;;11.40;2.60;;;;;;;27.05;56.73;101908.69;4993026;28;20043;-54
2022/11/02 11:03:57;;;;;;;16.60;2.97;;;;;;;27.47;54.75;101924.94;4988796;28;20034;-55
2022/11/02 11:06:41;;;;;;;13.03;2.07;;;;;;;28.50;52.72;101916.97;5003168;28;20145;-52
2022/11/02 11:09:15;;;;;;;15.07;2.50;;;;;;;27.92;52.08;101922.16;4993458;28;20066;-54
2022/11/02 11:12:11;;;;;;;10.83;2.30;;;;;;;26.13;55.25;101907.78;5008539;28;20484;-53
2022/11/02 11:14:45;;;;;;;14.27;2.50;;;;;;;26.70;57.24;101924.16;5001364;28;20054;-53
2022/11/02 11:17:22;;;;;;;7.50;2.17;;;;;;;26.84;55.81;101912.59;5008083;28;20035;-54
2022/11/02 11:19:53;;;;;;;11.13;2.03;;;;;;;26.58;53.97;101920.91;5009318;28;20030;-53
2022/11/02 11:22:31;;;;;;;8.97;2.10;;;;;;;26.58;54.72;101918.16;4992201;28;20041;-56
2022/11/02 11:25:29;;;;;;;8.03;2.10;;;;;;;27.47;52.78;101913.94;5002942;28;20031;-53
2022/11/02 11:27:56;;;;;;;12.63;2.00;;;;;;;27.99;50.68;101927.31;4995953;28;20046;-53
2022/11/02 11:30:34;;;;;;;7.23;1.77;;;;;;;27.81;51.06;101926.91;5012676;28;20058;-55
2022/11/02 11:33:02;;;;;;;10.53;2.67;;;;;;;28.50;49.99;101908.72;4992369;28;20066;-53
2022/11/02 11:35:33;;;;;;;9.37;1.83;;;;;;;27.62;50.54;101921.28;4993690;28;20073;-53
2022/11/02 11:38:03;;;;;;;18.77;2.67;;;;;;;28.62;49.36;101920.16;5001643;28;20049;-54